Portada
METAR-TAF:

METAR-TAF

Aeropuertos :

Kosrae, Micronesia

Aeropuerto Internacional de Kosrae

latitud: 05-21N, longitud: 162-57E, altitud: 3 m

Observación

El informe se hizo hace 20 horas y 49 minutos, a las 23:50 UTC
Viento 16 kt del noreste
Temperatura 31°C
Humedad 71%
Presión
Visibilidad: 16.1 km
Nubes dispersas a una altura de 2200 ft
Cielo nuboso a una altura de 30000 ft

METAR: PTSA 272350Z 05016KT 10SM SCT022 BKN300 31/25 RMK LAST

Hora: 07:39 (20:39 UTC)

Pronóstico

El informe se hizo hace 21 horas y 8 minutos, a las 23:31 UTC
Pronóstico válido del 27 a las 00 UTC al 27 a las 24 UTC
Viento 13 kt del este-noreste
Visibilidad: 10 km
Nubes dispersas a una altura de 2000 ft
Nubes dispersas a una altura de 13000 ft
chaparrones en las proximidades

TAF: PTSA 262331Z 2700/2724 06013KT P6SM VCSH SCT020 SCT130

Observaciones y pronósticos meteorológicos de más de 4000 aeropuertos (mensajes METAR y TAF).

Los puntos amarillos y rojos representan las estaciones disponibles.

Ponga el ratón en el punto deseado para ver el nombre de la estación.

Haga clic para ver las observaciones y los pronósticos meteorológicos.

Para cambiar el mapa : haga clic en los botones verdes con una cruz de color negro para hacer un zoom, en el botón verde con un guión para alejar o en las flechas verdes para mapas adyacentes.


METAR-TAF: